sensor_id;sensor_type;location;lat;lon;timestamp;temperature;humidity
75321;DHT22;68337;52.196;5.660;2023-04-03T00:00:22;3.00;99.90
75321;DHT22;68337;52.196;5.660;2023-04-03T00:02:48;3.00;99.90
75321;DHT22;68337;52.196;5.660;2023-04-03T00:05:13;3.10;99.90
75321;DHT22;68337;52.196;5.660;2023-04-03T00:07:39;3.00;99.90
75321;DHT22;68337;52.196;5.660;2023-04-03T00:10:06;3.00;99.90
75321;DHT22;68337;52.196;5.660;2023-04-03T00:12:31;3.00;99.90
75321;DHT22;68337;52.196;5.660;2023-04-03T00:14:57;2.90;99.90
75321;DHT22;68337;52.196;5.660;2023-04-03T00:17:23;2.80;99.90
75321;DHT22;68337;52.196;5.660;2023-04-03T00:19:48;2.70;99.90
75321;DHT22;68337;52.196;5.660;2023-04-03T00:22:14;2.80;99.90
75321;DHT22;68337;52.196;5.660;2023-04-03T00:24:40;2.80;99.90
75321;DHT22;68337;52.196;5.660;2023-04-03T00:27:05;2.70;99.90
75321;DHT22;68337;52.196;5.660;2023-04-03T00:29:31;2.70;99.90
75321;DHT22;68337;52.196;5.660;2023-04-03T00:31:56;2.70;99.90
75321;DHT22;68337;52.196;5.660;2023-04-03T00:34:22;2.60;99.90
75321;DHT22;68337;52.196;5.660;2023-04-03T00:36:48;2.70;99.90
75321;DHT22;68337;52.196;5.660;2023-04-03T00:39:13;2.60;99.90
75321;DHT22;68337;52.196;5.660;2023-04-03T00:41:39;2.60;99.90
75321;DHT22;68337;52.196;5.660;2023-04-03T00:44:20;2.60;99.90
75321;DHT22;68337;52.196;5.660;2023-04-03T00:46:46;2.60;99.90
75321;DHT22;68337;52.196;5.660;2023-04-03T00:49:11;2.60;99.90
75321;DHT22;68337;52.196;5.660;2023-04-03T00:51:37;2.50;99.90
75321;DHT22;68337;52.196;5.660;2023-04-03T00:54:04;2.40;99.90
75321;DHT22;68337;52.196;5.660;2023-04-03T00:56:31;2.50;99.90
75321;DHT22;68337;52.196;5.660;2023-04-03T00:59:33;2.40;99.90
75321;DHT22;68337;52.196;5.660;2023-04-03T01:01:53;2.40;99.90
75321;DHT22;68337;52.196;5.660;2023-04-03T01:04:33;2.40;99.90
75321;DHT22;68337;52.196;5.660;2023-04-03T01:09:58;2.30;99.90
75321;DHT22;68337;52.196;5.660;2023-04-03T01:12:27;2.30;99.90
75321;DHT22;68337;52.196;5.660;2023-04-03T01:15:15;2.30;99.90
75321;DHT22;68337;52.196;5.660;2023-04-03T01:17:46;2.40;99.90
75321;DHT22;68337;52.196;5.660;2023-04-03T01:23:17;2.30;99.90
75321;DHT22;68337;52.196;5.660;2023-04-03T01:25:51;2.20;99.90
75321;DHT22;68337;52.196;5.660;2023-04-03T01:28:25;2.20;99.90
75321;DHT22;68337;52.196;5.660;2023-04-03T01:33:44;2.20;99.90
75321;DHT22;68337;52.196;5.660;2023-04-03T01:36:20;2.10;99.90
75321;DHT22;68337;52.196;5.660;2023-04-03T01:38:47;2.10;99.90
75321;DHT22;68337;52.196;5.660;2023-04-03T01:41:13;2.10;99.90
75321;DHT22;68337;52.196;5.660;2023-04-03T01:43:39;2.10;99.90
75321;DHT22;68337;52.196;5.660;2023-04-03T01:46:05;2.00;99.90
75321;DHT22;68337;52.196;5.660;2023-04-03T01:48:31;1.90;99.90
75321;DHT22;68337;52.196;5.660;2023-04-03T01:50:56;1.90;99.90
75321;DHT22;68337;52.196;5.660;2023-04-03T01:53:22;1.90;99.90
75321;DHT22;68337;52.196;5.660;2023-04-03T01:55:48;1.80;99.90
75321;DHT22;68337;52.196;5.660;2023-04-03T01:58:14;1.80;99.90
75321;DHT22;68337;52.196;5.660;2023-04-03T02:00:39;1.80;99.90
75321;DHT22;68337;52.196;5.660;2023-04-03T02:03:05;1.80;99.90
75321;DHT22;68337;52.196;5.660;2023-04-03T02:05:32;1.70;99.90
75321;DHT22;68337;52.196;5.660;2023-04-03T02:07:58;1.70;99.90
75321;DHT22;68337;52.196;5.660;2023-04-03T02:10:24;1.70;99.90
75321;DHT22;68337;52.196;5.660;2023-04-03T02:12:49;1.70;99.90
75321;DHT22;68337;52.196;5.660;2023-04-03T02:15:16;1.70;99.90
75321;DHT22;68337;52.196;5.660;2023-04-03T02:17:41;1.70;99.90
75321;DHT22;68337;52.196;5.660;2023-04-03T02:20:07;1.70;99.90
75321;DHT22;68337;52.196;5.660;2023-04-03T02:22:33;1.70;99.90
75321;DHT22;68337;52.196;5.660;2023-04-03T02:24:59;1.70;99.90
75321;DHT22;68337;52.196;5.660;2023-04-03T02:27:25;1.70;99.90
75321;DHT22;68337;52.196;5.660;2023-04-03T02:29:50;1.70;99.90
75321;DHT22;68337;52.196;5.660;2023-04-03T02:32:16;1.60;99.90
75321;DHT22;68337;52.196;5.660;2023-04-03T02:34:42;1.70;99.90
75321;DHT22;68337;52.196;5.660;2023-04-03T02:37:07;1.70;99.90
75321;DHT22;68337;52.196;5.660;2023-04-03T02:39:33;1.70;99.90
75321;DHT22;68337;52.196;5.660;2023-04-03T02:41:59;1.60;99.90
75321;DHT22;68337;52.196;5.660;2023-04-03T02:44:25;1.60;99.90
75321;DHT22;68337;52.196;5.660;2023-04-03T02:46:51;1.60;99.90
75321;DHT22;68337;52.196;5.660;2023-04-03T02:49:17;1.50;99.90
75321;DHT22;68337;52.196;5.660;2023-04-03T02:51:42;1.50;99.90
75321;DHT22;68337;52.196;5.660;2023-04-03T02:54:08;1.40;99.90
75321;DHT22;68337;52.196;5.660;2023-04-03T02:56:35;1.40;99.90
75321;DHT22;68337;52.196;5.660;2023-04-03T02:59:01;1.50;99.90
75321;DHT22;68337;52.196;5.660;2023-04-03T03:01:27;1.50;99.90
75321;DHT22;68337;52.196;5.660;2023-04-03T03:03:57;1.50;99.90
75321;DHT22;68337;52.196;5.660;2023-04-03T03:06:23;1.50;99.90
75321;DHT22;68337;52.196;5.660;2023-04-03T03:08:48;1.40;99.90
75321;DHT22;68337;52.196;5.660;2023-04-03T03:11:15;1.40;99.90
75321;DHT22;68337;52.196;5.660;2023-04-03T03:13:41;1.40;99.90
75321;DHT22;68337;52.196;5.660;2023-04-03T03:16:07;1.30;99.90
75321;DHT22;68337;52.196;5.660;2023-04-03T03:18:33;1.30;99.90
75321;DHT22;68337;52.196;5.660;2023-04-03T03:21:01;1.40;99.90
75321;DHT22;68337;52.196;5.660;2023-04-03T03:23:28;1.40;99.90
75321;DHT22;68337;52.196;5.660;2023-04-03T03:25:59;1.30;99.90
75321;DHT22;68337;52.196;5.660;2023-04-03T03:28:25;1.30;99.90
75321;DHT22;68337;52.196;5.660;2023-04-03T03:30:50;1.30;99.90
75321;DHT22;68337;52.196;5.660;2023-04-03T03:33:17;1.20;99.90
75321;DHT22;68337;52.196;5.660;2023-04-03T03:35:43;1.20;99.90
75321;DHT22;68337;52.196;5.660;2023-04-03T03:38:09;1.10;99.90
75321;DHT22;68337;52.196;5.660;2023-04-03T03:40:34;1.10;99.90
75321;DHT22;68337;52.196;5.660;2023-04-03T03:43:00;1.10;99.90
75321;DHT22;68337;52.196;5.660;2023-04-03T03:45:26;1.10;99.90
75321;DHT22;68337;52.196;5.660;2023-04-03T03:47:52;1.10;99.90
75321;DHT22;68337;52.196;5.660;2023-04-03T03:50:18;1.10;99.90
75321;DHT22;68337;52.196;5.660;2023-04-03T03:52:43;1.20;99.90
75321;DHT22;68337;52.196;5.660;2023-04-03T03:55:10;1.20;99.90
75321;DHT22;68337;52.196;5.660;2023-04-03T03:57:36;1.30;99.90
75321;DHT22;68337;52.196;5.660;2023-04-03T04:00:02;1.20;99.90
75321;DHT22;68337;52.196;5.660;2023-04-03T04:02:28;1.10;99.90
75321;DHT22;68337;52.196;5.660;2023-04-03T04:04:54;1.10;99.90
75321;DHT22;68337;52.196;5.660;2023-04-03T04:07:20;1.10;99.90
75321;DHT22;68337;52.196;5.660;2023-04-03T04:09:46;1.10;99.90
75321;DHT22;68337;52.196;5.660;2023-04-03T04:12:11;1.00;99.90
75321;DHT22;68337;52.196;5.660;2023-04-03T04:14:37;1.00;99.90
75321;DHT22;68337;52.196;5.660;2023-04-03T04:17:03;1.00;99.90
75321;DHT22;68337;52.196;5.660;2023-04-03T04:19:28;1.00;99.90
75321;DHT22;68337;52.196;5.660;2023-04-03T04:21:54;1.00;99.90
75321;DHT22;68337;52.196;5.660;2023-04-03T04:24:20;0.90;99.90
75321;DHT22;68337;52.196;5.660;2023-04-03T04:26:48;0.90;99.90
75321;DHT22;68337;52.196;5.660;2023-04-03T04:29:14;0.90;99.90
75321;DHT22;68337;52.196;5.660;2023-04-03T04:31:39;1.00;99.90
75321;DHT22;68337;52.196;5.660;2023-04-03T04:34:05;1.00;99.90
75321;DHT22;68337;52.196;5.660;2023-04-03T04:36:31;1.00;99.90
75321;DHT22;68337;52.196;5.660;2023-04-03T04:38:57;0.90;99.90
75321;DHT22;68337;52.196;5.660;2023-04-03T04:41:24;0.90;99.90
75321;DHT22;68337;52.196;5.660;2023-04-03T04:43:50;0.70;99.90
75321;DHT22;68337;52.196;5.660;2023-04-03T04:46:16;0.80;99.90
75321;DHT22;68337;52.196;5.660;2023-04-03T04:48:43;0.70;99.90
75321;DHT22;68337;52.196;5.660;2023-04-03T04:51:09;0.80;99.90
75321;DHT22;68337;52.196;5.660;2023-04-03T04:53:34;0.80;99.90
75321;DHT22;68337;52.196;5.660;2023-04-03T04:56:00;0.80;99.90
75321;DHT22;68337;52.196;5.660;2023-04-03T04:58:26;0.70;99.90
75321;DHT22;68337;52.196;5.660;2023-04-03T05:01:06;0.70;99.90
75321;DHT22;68337;52.196;5.660;2023-04-03T05:03:33;0.70;99.90
75321;DHT22;68337;52.196;5.660;2023-04-03T05:05:59;0.70;99.90
75321;DHT22;68337;52.196;5.660;2023-04-03T05:08:25;0.70;99.90
75321;DHT22;68337;52.196;5.660;2023-04-03T05:10:51;0.70;99.90
75321;DHT22;68337;52.196;5.660;2023-04-03T05:13:18;0.70;99.90
75321;DHT22;68337;52.196;5.660;2023-04-03T05:15:44;0.60;99.90
75321;DHT22;68337;52.196;5.660;2023-04-03T05:18:10;0.60;99.90
75321;DHT22;68337;52.196;5.660;2023-04-03T05:20:36;0.50;99.90
75321;DHT22;68337;52.196;5.660;2023-04-03T05:23:02;0.50;99.90
75321;DHT22;68337;52.196;5.660;2023-04-03T05:25:28;0.50;99.90
75321;DHT22;68337;52.196;5.660;2023-04-03T05:27:54;0.40;99.90
75321;DHT22;68337;52.196;5.660;2023-04-03T05:30:20;0.50;99.90
75321;DHT22;68337;52.196;5.660;2023-04-03T05:32:45;0.40;99.90
75321;DHT22;68337;52.196;5.660;2023-04-03T05:35:11;0.40;99.90
75321;DHT22;68337;52.196;5.660;2023-04-03T05:37:37;0.50;99.90
75321;DHT22;68337;52.196;5.660;2023-04-03T05:40:04;0.60;99.90
75321;DHT22;68337;52.196;5.660;2023-04-03T05:42:30;0.60;99.90
75321;DHT22;68337;52.196;5.660;2023-04-03T05:44:56;0.70;99.90
75321;DHT22;68337;52.196;5.660;2023-04-03T05:47:22;0.80;99.90
75321;DHT22;68337;52.196;5.660;2023-04-03T05:49:48;0.80;99.90
75321;DHT22;68337;52.196;5.660;2023-04-03T05:52:28;0.80;99.90
75321;DHT22;68337;52.196;5.660;2023-04-03T05:54:55;0.80;99.90
75321;DHT22;68337;52.196;5.660;2023-04-03T05:57:21;0.80;99.90
75321;DHT22;68337;52.196;5.660;2023-04-03T05:59:47;0.90;99.90
75321;DHT22;68337;52.196;5.660;2023-04-03T06:02:19;1.00;99.90
75321;DHT22;68337;52.196;5.660;2023-04-03T06:04:45;1.00;99.90
75321;DHT22;68337;52.196;5.660;2023-04-03T06:07:14;1.00;99.90
75321;DHT22;68337;52.196;5.660;2023-04-03T06:09:41;1.00;99.90
75321;DHT22;68337;52.196;5.660;2023-04-03T06:12:07;1.00;99.90
75321;DHT22;68337;52.196;5.660;2023-04-03T06:14:33;1.10;99.90
75321;DHT22;68337;52.196;5.660;2023-04-03T06:16:59;1.20;99.90
75321;DHT22;68337;52.196;5.660;2023-04-03T06:19:25;1.20;99.90
75321;DHT22;68337;52.196;5.660;2023-04-03T06:21:51;1.30;99.90
75321;DHT22;68337;52.196;5.660;2023-04-03T06:24:18;1.30;99.90
75321;DHT22;68337;52.196;5.660;2023-04-03T06:26:44;1.50;99.90
75321;DHT22;68337;52.196;5.660;2023-04-03T06:29:09;1.60;99.90
75321;DHT22;68337;52.196;5.660;2023-04-03T06:31:35;1.80;99.90
75321;DHT22;68337;52.196;5.660;2023-04-03T06:34:05;2.00;99.90
75321;DHT22;68337;52.196;5.660;2023-04-03T06:36:33;2.20;99.90
75321;DHT22;68337;52.196;5.660;2023-04-03T06:38:58;2.40;99.90
75321;DHT22;68337;52.196;5.660;2023-04-03T06:41:24;2.50;99.90
75321;DHT22;68337;52.196;5.660;2023-04-03T06:43:51;2.70;99.90
75321;DHT22;68337;52.196;5.660;2023-04-03T06:46:20;2.90;99.90
75321;DHT22;68337;52.196;5.660;2023-04-03T06:48:45;3.00;99.90
75321;DHT22;68337;52.196;5.660;2023-04-03T06:51:22;3.10;99.90
75321;DHT22;68337;52.196;5.660;2023-04-03T06:53:49;3.10;99.90
75321;DHT22;68337;52.196;5.660;2023-04-03T06:56:16;3.20;99.90
75321;DHT22;68337;52.196;5.660;2023-04-03T06:58:42;3.40;99.90
75321;DHT22;68337;52.196;5.660;2023-04-03T07:01:10;3.60;99.90
75321;DHT22;68337;52.196;5.660;2023-04-03T07:03:36;3.80;99.90
75321;DHT22;68337;52.196;5.660;2023-04-03T07:06:03;4.00;99.90
75321;DHT22;68337;52.196;5.660;2023-04-03T07:08:30;4.10;99.90
75321;DHT22;68337;52.196;5.660;2023-04-03T07:10:56;4.30;99.90
75321;DHT22;68337;52.196;5.660;2023-04-03T07:13:22;4.30;99.90
75321;DHT22;68337;52.196;5.660;2023-04-03T07:15:48;4.40;99.90
75321;DHT22;68337;52.196;5.660;2023-04-03T07:18:16;4.40;99.90
75321;DHT22;68337;52.196;5.660;2023-04-03T07:20:43;4.50;99.90
75321;DHT22;68337;52.196;5.660;2023-04-03T07:23:09;4.80;99.90
75321;DHT22;68337;52.196;5.660;2023-04-03T07:25:34;5.00;99.90
75321;DHT22;68337;52.196;5.660;2023-04-03T07:28:00;5.10;99.90
75321;DHT22;68337;52.196;5.660;2023-04-03T07:30:27;5.00;99.90
75321;DHT22;68337;52.196;5.660;2023-04-03T07:32:53;5.20;99.90
75321;DHT22;68337;52.196;5.660;2023-04-03T07:35:19;5.40;99.90
75321;DHT22;68337;52.196;5.660;2023-04-03T07:37:45;5.50;99.90
75321;DHT22;68337;52.196;5.660;2023-04-03T07:40:11;5.50;99.90
75321;DHT22;68337;52.196;5.660;2023-04-03T07:42:37;5.70;99.90
75321;DHT22;68337;52.196;5.660;2023-04-03T07:45:04;5.90;99.90
75321;DHT22;68337;52.196;5.660;2023-04-03T07:47:30;5.90;99.90
75321;DHT22;68337;52.196;5.660;2023-04-03T07:49:57;6.00;99.90
75321;DHT22;68337;52.196;5.660;2023-04-03T07:52:23;6.00;99.90
75321;DHT22;68337;52.196;5.660;2023-04-03T07:54:49;6.30;99.90
75321;DHT22;68337;52.196;5.660;2023-04-03T07:57:15;6.40;99.90
75321;DHT22;68337;52.196;5.660;2023-04-03T07:59:41;6.40;99.90
75321;DHT22;68337;52.196;5.660;2023-04-03T08:02:11;6.60;99.90
75321;DHT22;68337;52.196;5.660;2023-04-03T08:04:37;6.90;99.90
75321;DHT22;68337;52.196;5.660;2023-04-03T08:07:03;7.10;99.90
75321;DHT22;68337;52.196;5.660;2023-04-03T08:09:29;7.30;99.90
75321;DHT22;68337;52.196;5.660;2023-04-03T08:11:55;7.60;99.90
75321;DHT22;68337;52.196;5.660;2023-04-03T08:14:21;7.90;99.90
75321;DHT22;68337;52.196;5.660;2023-04-03T08:16:48;7.90;99.90
75321;DHT22;68337;52.196;5.660;2023-04-03T08:19:15;8.20;99.90
75321;DHT22;68337;52.196;5.660;2023-04-03T08:21:42;8.00;99.90
75321;DHT22;68337;52.196;5.660;2023-04-03T08:24:09;8.10;99.90
75321;DHT22;68337;52.196;5.660;2023-04-03T08:26:35;8.20;99.90
75321;DHT22;68337;52.196;5.660;2023-04-03T08:29:01;8.20;99.90
75321;DHT22;68337;52.196;5.660;2023-04-03T08:31:27;8.40;99.90
75321;DHT22;68337;52.196;5.660;2023-04-03T08:33:53;8.70;93.90
75321;DHT22;68337;52.196;5.660;2023-04-03T08:36:21;8.50;94.60
75321;DHT22;68337;52.196;5.660;2023-04-03T08:38:48;8.80;96.00
75321;DHT22;68337;52.196;5.660;2023-04-03T08:41:37;9.00;97.80
75321;DHT22;68337;52.196;5.660;2023-04-03T08:44:31;9.20;86.70
75321;DHT22;68337;52.196;5.660;2023-04-03T08:49:43;9.00;64.80
75321;DHT22;68337;52.196;5.660;2023-04-03T08:55:22;9.20;62.40
75321;DHT22;68337;52.196;5.660;2023-04-03T08:57:51;9.60;74.00
75321;DHT22;68337;52.196;5.660;2023-04-03T09:00:21;10.00;57.90
75321;DHT22;68337;52.196;5.660;2023-04-03T09:02:53;10.00;55.20
75321;DHT22;68337;52.196;5.660;2023-04-03T09:22:01;10.30;48.30
75321;DHT22;68337;52.196;5.660;2023-04-03T09:24:32;10.40;48.90
75321;DHT22;68337;52.196;5.660;2023-04-03T09:27:04;10.90;47.20
75321;DHT22;68337;52.196;5.660;2023-04-03T09:29:33;11.00;42.50
75321;DHT22;68337;52.196;5.660;2023-04-03T09:32:02;11.00;43.20
75321;DHT22;68337;52.196;5.660;2023-04-03T09:34:40;11.00;44.70
75321;DHT22;68337;52.196;5.660;2023-04-03T09:37:07;11.60;46.10
75321;DHT22;68337;52.196;5.660;2023-04-03T09:39:53;11.70;44.80
75321;DHT22;68337;52.196;5.660;2023-04-03T09:42:22;11.80;43.50
75321;DHT22;68337;52.196;5.660;2023-04-03T09:47:28;11.60;43.00
75321;DHT22;68337;52.196;5.660;2023-04-03T09:52:40;11.50;42.60
75321;DHT22;68337;52.196;5.660;2023-04-03T09:55:08;11.60;42.70
75321;DHT22;68337;52.196;5.660;2023-04-03T09:57:38;11.30;42.50
75321;DHT22;68337;52.196;5.660;2023-04-03T10:00:06;11.60;43.30
75321;DHT22;68337;52.196;5.660;2023-04-03T10:02:40;11.70;40.50
75321;DHT22;68337;52.196;5.660;2023-04-03T10:05:37;12.00;42.80
75321;DHT22;68337;52.196;5.660;2023-04-03T10:10:42;11.70;41.70
75321;DHT22;68337;52.196;5.660;2023-04-03T10:13:12;11.70;40.10
75321;DHT22;68337;52.196;5.660;2023-04-03T10:15:44;11.80;40.80
75321;DHT22;68337;52.196;5.660;2023-04-03T10:24:17;11.90;42.30
75321;DHT22;68337;52.196;5.660;2023-04-03T10:34:39;12.80;41.30
75321;DHT22;68337;52.196;5.660;2023-04-03T10:37:20;12.70;39.20
75321;DHT22;68337;52.196;5.660;2023-04-03T10:42:48;12.80;39.10
75321;DHT22;68337;52.196;5.660;2023-04-03T10:48:33;12.00;38.70
75321;DHT22;68337;52.196;5.660;2023-04-03T10:54:24;12.20;39.60
75321;DHT22;68337;52.196;5.660;2023-04-03T10:56:57;12.40;39.80
75321;DHT22;68337;52.196;5.660;2023-04-03T10:59:28;12.50;40.10
75321;DHT22;68337;52.196;5.660;2023-04-03T11:01:59;12.80;39.90
75321;DHT22;68337;52.196;5.660;2023-04-03T11:04:29;12.50;38.10
75321;DHT22;68337;52.196;5.660;2023-04-03T11:07:08;12.20;39.50
75321;DHT22;68337;52.196;5.660;2023-04-03T11:09:37;12.20;39.60
75321;DHT22;68337;52.196;5.660;2023-04-03T11:14:40;12.30;40.00
75321;DHT22;68337;52.196;5.660;2023-04-03T11:19:41;12.20;39.80
75321;DHT22;68337;52.196;5.660;2023-04-03T11:22:25;12.10;40.10
75321;DHT22;68337;52.196;5.660;2023-04-03T11:27:47;12.30;39.50
75321;DHT22;68337;52.196;5.660;2023-04-03T11:35:36;12.80;39.80
75321;DHT22;68337;52.196;5.660;2023-04-03T11:38:04;12.80;39.40
75321;DHT22;68337;52.196;5.660;2023-04-03T11:40:33;12.70;38.90
75321;DHT22;68337;52.196;5.660;2023-04-03T11:45:31;12.70;39.80
75321;DHT22;68337;52.196;5.660;2023-04-03T11:50:52;13.40;39.30
75321;DHT22;68337;52.196;5.660;2023-04-03T11:55:57;13.70;40.40
75321;DHT22;68337;52.196;5.660;2023-04-03T11:58:35;13.90;38.90
75321;DHT22;68337;52.196;5.660;2023-04-03T12:13:37;13.40;38.50
75321;DHT22;68337;52.196;5.660;2023-04-03T12:16:05;13.60;38.90
75321;DHT22;68337;52.196;5.660;2023-04-03T12:18:39;13.60;39.10
75321;DHT22;68337;52.196;5.660;2023-04-03T12:21:07;13.40;38.60
75321;DHT22;68337;52.196;5.660;2023-04-03T12:23:37;13.10;38.90
75321;DHT22;68337;52.196;5.660;2023-04-03T12:26:28;13.10;39.50
75321;DHT22;68337;52.196;5.660;2023-04-03T12:28:55;12.80;39.60
75321;DHT22;68337;52.196;5.660;2023-04-03T12:31:25;12.80;39.70
75321;DHT22;68337;52.196;5.660;2023-04-03T12:37:05;13.10;39.70
75321;DHT22;68337;52.196;5.660;2023-04-03T12:45:44;13.40;39.90
75321;DHT22;68337;52.196;5.660;2023-04-03T12:48:16;13.20;39.90
75321;DHT22;68337;52.196;5.660;2023-04-03T12:50:45;13.50;39.80
75321;DHT22;68337;52.196;5.660;2023-04-03T12:53:19;13.60;39.70
75321;DHT22;68337;52.196;5.660;2023-04-03T12:55:49;13.40;39.40
75321;DHT22;68337;52.196;5.660;2023-04-03T12:58:27;13.10;39.30
75321;DHT22;68337;52.196;5.660;2023-04-03T13:01:04;13.60;41.00
75321;DHT22;68337;52.196;5.660;2023-04-03T13:03:42;13.70;39.60
75321;DHT22;68337;52.196;5.660;2023-04-03T13:06:27;13.80;40.20
75321;DHT22;68337;52.196;5.660;2023-04-03T13:08:58;14.10;40.40
75321;DHT22;68337;52.196;5.660;2023-04-03T13:11:28;14.00;39.40
75321;DHT22;68337;52.196;5.660;2023-04-03T13:14:01;14.20;41.20
75321;DHT22;68337;52.196;5.660;2023-04-03T13:16:29;14.00;39.80
75321;DHT22;68337;52.196;5.660;2023-04-03T13:18:55;13.90;39.80
75321;DHT22;68337;52.196;5.660;2023-04-03T13:21:32;13.80;39.50
75321;DHT22;68337;52.196;5.660;2023-04-03T13:24:01;13.80;39.00
75321;DHT22;68337;52.196;5.660;2023-04-03T13:26:30;13.30;39.40
75321;DHT22;68337;52.196;5.660;2023-04-03T13:29:01;12.90;40.00
75321;DHT22;68337;52.196;5.660;2023-04-03T13:31:36;12.90;40.90
75321;DHT22;68337;52.196;5.660;2023-04-03T13:34:27;12.90;41.20
75321;DHT22;68337;52.196;5.660;2023-04-03T13:39:23;13.70;40.20
75321;DHT22;68337;52.196;5.660;2023-04-03T13:44:45;13.40;41.40
75321;DHT22;68337;52.196;5.660;2023-04-03T13:47:21;13.60;39.40
75321;DHT22;68337;52.196;5.660;2023-04-03T13:52:42;13.40;41.10
75321;DHT22;68337;52.196;5.660;2023-04-03T13:55:19;13.40;40.60
75321;DHT22;68337;52.196;5.660;2023-04-03T13:57:59;13.60;41.10
75321;DHT22;68337;52.196;5.660;2023-04-03T14:00:36;13.50;40.70
75321;DHT22;68337;52.196;5.660;2023-04-03T14:03:16;13.20;40.50
75321;DHT22;68337;52.196;5.660;2023-04-03T14:05:44;13.10;41.40
75321;DHT22;68337;52.196;5.660;2023-04-03T14:08:11;13.20;42.50
75321;DHT22;68337;52.196;5.660;2023-04-03T14:10:37;13.60;41.00
75321;DHT22;68337;52.196;5.660;2023-04-03T14:13:03;13.40;40.30
75321;DHT22;68337;52.196;5.660;2023-04-03T14:15:30;13.20;42.00
75321;DHT22;68337;52.196;5.660;2023-04-03T14:17:57;13.20;41.80
75321;DHT22;68337;52.196;5.660;2023-04-03T14:20:25;13.10;40.80
75321;DHT22;68337;52.196;5.660;2023-04-03T14:22:52;13.30;43.10
75321;DHT22;68337;52.196;5.660;2023-04-03T14:25:20;13.30;41.10
75321;DHT22;68337;52.196;5.660;2023-04-03T14:27:48;13.30;42.10
75321;DHT22;68337;52.196;5.660;2023-04-03T14:30:24;13.40;43.40
75321;DHT22;68337;52.196;5.660;2023-04-03T14:32:51;13.10;42.50
75321;DHT22;68337;52.196;5.660;2023-04-03T14:35:17;13.10;43.30
75321;DHT22;68337;52.196;5.660;2023-04-03T14:37:45;13.20;42.60
75321;DHT22;68337;52.196;5.660;2023-04-03T14:40:18;13.20;43.50
75321;DHT22;68337;52.196;5.660;2023-04-03T14:42:44;12.70;42.60
75321;DHT22;68337;52.196;5.660;2023-04-03T14:45:12;12.90;43.70
75321;DHT22;68337;52.196;5.660;2023-04-03T14:47:56;13.10;42.70
75321;DHT22;68337;52.196;5.660;2023-04-03T14:50:25;12.80;43.40
75321;DHT22;68337;52.196;5.660;2023-04-03T14:52:54;13.00;45.10
75321;DHT22;68337;52.196;5.660;2023-04-03T14:55:23;13.10;42.60
75321;DHT22;68337;52.196;5.660;2023-04-03T14:57:50;12.80;43.70
75321;DHT22;68337;52.196;5.660;2023-04-03T15:00:19;12.50;44.50
75321;DHT22;68337;52.196;5.660;2023-04-03T15:02:46;12.80;45.10
75321;DHT22;68337;52.196;5.660;2023-04-03T15:05:13;13.00;45.30
75321;DHT22;68337;52.196;5.660;2023-04-03T15:07:52;13.00;44.10
75321;DHT22;68337;52.196;5.660;2023-04-03T15:10:22;13.00;45.10
75321;DHT22;68337;52.196;5.660;2023-04-03T15:12:49;13.00;44.40
75321;DHT22;68337;52.196;5.660;2023-04-03T15:15:16;12.90;45.20
75321;DHT22;68337;52.196;5.660;2023-04-03T15:17:43;12.60;45.70
75321;DHT22;68337;52.196;5.660;2023-04-03T15:20:18;12.40;47.10
75321;DHT22;68337;52.196;5.660;2023-04-03T15:22:44;12.20;47.30
75321;DHT22;68337;52.196;5.660;2023-04-03T15:25:10;12.30;47.00
75321;DHT22;68337;52.196;5.660;2023-04-03T15:27:37;12.20;47.30
75321;DHT22;68337;52.196;5.660;2023-04-03T15:30:04;12.10;48.40
75321;DHT22;68337;52.196;5.660;2023-04-03T15:32:30;11.90;47.90
75321;DHT22;68337;52.196;5.660;2023-04-03T15:34:59;12.00;48.80
75321;DHT22;68337;52.196;5.660;2023-04-03T15:37:25;11.80;49.10
75321;DHT22;68337;52.196;5.660;2023-04-03T15:39:51;11.80;50.60
75321;DHT22;68337;52.196;5.660;2023-04-03T15:42:19;11.70;48.60
75321;DHT22;68337;52.196;5.660;2023-04-03T15:44:45;11.60;50.70
75321;DHT22;68337;52.196;5.660;2023-04-03T15:47:12;11.20;49.60
75321;DHT22;68337;52.196;5.660;2023-04-03T15:49:38;11.10;51.70
75321;DHT22;68337;52.196;5.660;2023-04-03T15:52:05;11.00;53.90
75321;DHT22;68337;52.196;5.660;2023-04-03T15:54:31;10.90;52.10
75321;DHT22;68337;52.196;5.660;2023-04-03T15:56:57;10.90;52.50
75321;DHT22;68337;52.196;5.660;2023-04-03T15:59:23;10.90;54.40
75321;DHT22;68337;52.196;5.660;2023-04-03T16:01:49;10.90;52.60
75321;DHT22;68337;52.196;5.660;2023-04-03T16:04:16;10.90;53.00
75321;DHT22;68337;52.196;5.660;2023-04-03T16:06:42;10.90;54.40
75321;DHT22;68337;52.196;5.660;2023-04-03T16:09:09;10.90;52.10
75321;DHT22;68337;52.196;5.660;2023-04-03T16:11:35;10.70;51.60
75321;DHT22;68337;52.196;5.660;2023-04-03T16:14:04;10.60;52.50
75321;DHT22;68337;52.196;5.660;2023-04-03T16:16:30;10.70;53.60
75321;DHT22;68337;52.196;5.660;2023-04-03T16:18:56;10.70;54.10
75321;DHT22;68337;52.196;5.660;2023-04-03T16:21:22;10.60;54.10
75321;DHT22;68337;52.196;5.660;2023-04-03T16:23:48;10.40;53.20
75321;DHT22;68337;52.196;5.660;2023-04-03T16:26:15;10.40;55.30
75321;DHT22;68337;52.196;5.660;2023-04-03T16:28:42;10.40;55.50
75321;DHT22;68337;52.196;5.660;2023-04-03T16:31:12;10.20;56.70
75321;DHT22;68337;52.196;5.660;2023-04-03T16:33:38;10.10;58.10
75321;DHT22;68337;52.196;5.660;2023-04-03T16:36:04;9.90;58.00
75321;DHT22;68337;52.196;5.660;2023-04-03T16:38:30;9.80;62.20
75321;DHT22;68337;52.196;5.660;2023-04-03T16:40:56;9.80;61.00
75321;DHT22;68337;52.196;5.660;2023-04-03T16:43:25;9.90;60.90
75321;DHT22;68337;52.196;5.660;2023-04-03T16:45:56;9.90;63.80
75321;DHT22;68337;52.196;5.660;2023-04-03T16:48:22;9.90;66.60
75321;DHT22;68337;52.196;5.660;2023-04-03T16:50:49;9.80;65.50
75321;DHT22;68337;52.196;5.660;2023-04-03T16:53:17;9.60;69.90
75321;DHT22;68337;52.196;5.660;2023-04-03T16:55:43;9.60;73.80
75321;DHT22;68337;52.196;5.660;2023-04-03T16:58:09;9.60;72.40
75321;DHT22;68337;52.196;5.660;2023-04-03T17:00:35;9.50;76.20
75321;DHT22;68337;52.196;5.660;2023-04-03T17:03:04;9.50;78.80
75321;DHT22;68337;52.196;5.660;2023-04-03T17:05:30;9.40;75.00
75321;DHT22;68337;52.196;5.660;2023-04-03T17:07:56;9.30;78.50
75321;DHT22;68337;52.196;5.660;2023-04-03T17:10:25;9.10;80.80
75321;DHT22;68337;52.196;5.660;2023-04-03T17:12:51;9.30;74.20
75321;DHT22;68337;52.196;5.660;2023-04-03T17:15:17;9.20;80.90
75321;DHT22;68337;52.196;5.660;2023-04-03T17:17:44;9.10;80.20
75321;DHT22;68337;52.196;5.660;2023-04-03T17:20:12;9.10;81.40
75321;DHT22;68337;52.196;5.660;2023-04-03T17:22:37;8.90;82.50
75321;DHT22;68337;52.196;5.660;2023-04-03T17:25:04;8.90;86.10
75321;DHT22;68337;52.196;5.660;2023-04-03T17:27:30;8.80;85.70
75321;DHT22;68337;52.196;5.660;2023-04-03T17:29:55;8.70;86.80
75321;DHT22;68337;52.196;5.660;2023-04-03T17:32:21;8.70;87.60
75321;DHT22;68337;52.196;5.660;2023-04-03T17:34:48;8.60;91.20
75321;DHT22;68337;52.196;5.660;2023-04-03T17:37:14;8.60;91.90
75321;DHT22;68337;52.196;5.660;2023-04-03T17:39:39;8.50;93.90